sensor_id;sensor_type;location;lat;lon;timestamp;pressure;altitude;pressure_sealevel;temperature;humidity
74868;BME280;63419;42.262;12.210;2022-10-16T00:01:44;97861.34;;;16.77;100.00
74868;BME280;63419;42.262;12.210;2022-10-16T00:04:12;97860.84;;;17.04;100.00
74868;BME280;63419;42.262;12.210;2022-10-16T00:06:40;97860.13;;;17.43;100.00
74868;BME280;63419;42.262;12.210;2022-10-16T00:09:10;97869.41;;;17.76;100.00
74868;BME280;63419;42.262;12.210;2022-10-16T00:11:39;97881.72;;;16.83;100.00
74868;BME280;63419;42.262;12.210;2022-10-16T00:14:12;97884.97;;;17.37;100.00
74868;BME280;63419;42.262;12.210;2022-10-16T00:16:41;97889.84;;;17.21;100.00
74868;BME280;63419;42.262;12.210;2022-10-16T00:19:11;97889.19;;;16.77;100.00
74868;BME280;63419;42.262;12.210;2022-10-16T00:21:39;97893.31;;;17.00;100.00
74868;BME280;63419;42.262;12.210;2022-10-16T00:24:09;97892.81;;;16.64;100.00
74868;BME280;63419;42.262;12.210;2022-10-16T00:26:38;97898.81;;;15.90;100.00
74868;BME280;63419;42.262;12.210;2022-10-16T00:29:07;97900.25;;;15.49;100.00
74868;BME280;63419;42.262;12.210;2022-10-16T00:31:35;97904.16;;;15.32;100.00
74868;BME280;63419;42.262;12.210;2022-10-16T00:34:02;97901.69;;;15.76;100.00
74868;BME280;63419;42.262;12.210;2022-10-16T00:36:29;97895.28;;;16.12;100.00
74868;BME280;63419;42.262;12.210;2022-10-16T00:39:01;97900.00;;;15.64;100.00
74868;BME280;63419;42.262;12.210;2022-10-16T00:41:30;97898.06;;;15.99;100.00
74868;BME280;63419;42.262;12.210;2022-10-16T00:44:40;97892.47;;;16.04;100.00
74868;BME280;63419;42.262;12.210;2022-10-16T00:46:50;97900.78;;;16.30;100.00
74868;BME280;63419;42.262;12.210;2022-10-16T00:49:19;97888.34;;;16.55;100.00
74868;BME280;63419;42.262;12.210;2022-10-16T00:51:53;97890.56;;;16.81;100.00
74868;BME280;63419;42.262;12.210;2022-10-16T00:54:28;97880.13;;;16.92;100.00
74868;BME280;63419;42.262;12.210;2022-10-16T00:57:01;97881.94;;;17.01;100.00
74868;BME280;63419;42.262;12.210;2022-10-16T00:59:39;97892.56;;;17.09;100.00
74868;BME280;63419;42.262;12.210;2022-10-16T01:02:12;97886.78;;;17.06;100.00
74868;BME280;63419;42.262;12.210;2022-10-16T01:04:47;97889.44;;;17.25;100.00
74868;BME280;63419;42.262;12.210;2022-10-16T01:07:20;97890.09;;;17.18;100.00
74868;BME280;63419;42.262;12.210;2022-10-16T01:16:03;97892.06;;;17.25;100.00
74868;BME280;63419;42.262;12.210;2022-10-16T01:18:53;97891.84;;;17.38;100.00
74868;BME280;63419;42.262;12.210;2022-10-16T01:21:24;97898.09;;;15.66;100.00
74868;BME280;63419;42.262;12.210;2022-10-16T01:24:41;97898.25;;;15.41;100.00
74868;BME280;63419;42.262;12.210;2022-10-16T01:27:27;97890.94;;;16.02;100.00
74868;BME280;63419;42.262;12.210;2022-10-16T01:30:23;97897.91;;;15.35;100.00
74868;BME280;63419;42.262;12.210;2022-10-16T01:33:20;97898.09;;;15.77;100.00
74868;BME280;63419;42.262;12.210;2022-10-16T01:35:55;97891.78;;;16.02;100.00
74868;BME280;63419;42.262;12.210;2022-10-16T01:38:37;97883.34;;;16.42;100.00
74868;BME280;63419;42.262;12.210;2022-10-16T01:41:28;97885.41;;;16.27;100.00
74868;BME280;63419;42.262;12.210;2022-10-16T01:46:31;97889.06;;;16.57;100.00
74868;BME280;63419;42.262;12.210;2022-10-16T01:49:03;97885.06;;;16.53;100.00
74868;BME280;63419;42.262;12.210;2022-10-16T01:51:32;97885.84;;;16.11;100.00
74868;BME280;63419;42.262;12.210;2022-10-16T01:54:01;97881.69;;;16.09;100.00
74868;BME280;63419;42.262;12.210;2022-10-16T01:56:30;97868.53;;;16.43;100.00
74868;BME280;63419;42.262;12.210;2022-10-16T01:59:15;97866.53;;;16.77;100.00
74868;BME280;63419;42.262;12.210;2022-10-16T02:01:51;97868.16;;;16.89;100.00
74868;BME280;63419;42.262;12.210;2022-10-16T02:04:29;97869.25;;;16.87;100.00
74868;BME280;63419;42.262;12.210;2022-10-16T02:07:00;97870.44;;;16.83;100.00
74868;BME280;63419;42.262;12.210;2022-10-16T02:09:34;97865.97;;;16.73;100.00
74868;BME280;63419;42.262;12.210;2022-10-16T02:12:32;97879.69;;;16.87;100.00
74868;BME280;63419;42.262;12.210;2022-10-16T02:15:02;97870.97;;;17.07;100.00
74868;BME280;63419;42.262;12.210;2022-10-16T02:17:30;97867.53;;;16.97;100.00
74868;BME280;63419;42.262;12.210;2022-10-16T02:20:00;97872.69;;;15.47;100.00
74868;BME280;63419;42.262;12.210;2022-10-16T02:22:43;97859.72;;;16.02;100.00
74868;BME280;63419;42.262;12.210;2022-10-16T02:25:44;97847.78;;;16.52;100.00
74868;BME280;63419;42.262;12.210;2022-10-16T02:28:39;97850.22;;;16.96;100.00
74868;BME280;63419;42.262;12.210;2022-10-16T02:31:24;97845.09;;;17.16;100.00
74868;BME280;63419;42.262;12.210;2022-10-16T02:34:01;97834.66;;;17.16;100.00
74868;BME280;63419;42.262;12.210;2022-10-16T02:36:36;97832.50;;;17.21;100.00
74868;BME280;63419;42.262;12.210;2022-10-16T02:39:08;97837.50;;;17.43;100.00
74868;BME280;63419;42.262;12.210;2022-10-16T02:41:37;97839.63;;;17.28;100.00
74868;BME280;63419;42.262;12.210;2022-10-16T02:44:04;97841.97;;;16.91;100.00
74868;BME280;63419;42.262;12.210;2022-10-16T02:46:35;97827.41;;;16.25;100.00
74868;BME280;63419;42.262;12.210;2022-10-16T02:49:07;97830.75;;;17.00;100.00
74868;BME280;63419;42.262;12.210;2022-10-16T02:51:38;97830.00;;;17.09;100.00
74868;BME280;63419;42.262;12.210;2022-10-16T02:54:11;97845.50;;;17.61;100.00
74868;BME280;63419;42.262;12.210;2022-10-16T02:56:39;97834.34;;;17.49;100.00
74868;BME280;63419;42.262;12.210;2022-10-16T02:59:06;97842.16;;;17.49;100.00
74868;BME280;63419;42.262;12.210;2022-10-16T03:01:36;97839.50;;;17.30;100.00
74868;BME280;63419;42.262;12.210;2022-10-16T03:04:05;97837.75;;;16.79;100.00
74868;BME280;63419;42.262;12.210;2022-10-16T03:06:32;97845.13;;;16.73;100.00
74868;BME280;63419;42.262;12.210;2022-10-16T03:09:02;97842.94;;;16.48;100.00
74868;BME280;63419;42.262;12.210;2022-10-16T03:11:32;97833.66;;;16.55;100.00
74868;BME280;63419;42.262;12.210;2022-10-16T03:14:02;97838.28;;;16.72;100.00
74868;BME280;63419;42.262;12.210;2022-10-16T03:16:30;97847.56;;;16.65;100.00
74868;BME280;63419;42.262;12.210;2022-10-16T03:18:58;97848.06;;;16.59;100.00
74868;BME280;63419;42.262;12.210;2022-10-16T03:21:31;97852.38;;;16.91;100.00
74868;BME280;63419;42.262;12.210;2022-10-16T03:24:02;97860.78;;;16.31;100.00
74868;BME280;63419;42.262;12.210;2022-10-16T03:26:29;97858.72;;;16.14;100.00
74868;BME280;63419;42.262;12.210;2022-10-16T03:28:58;97869.41;;;16.32;100.00
74868;BME280;63419;42.262;12.210;2022-10-16T03:31:28;97872.84;;;15.22;100.00
74868;BME280;63419;42.262;12.210;2022-10-16T03:33:55;97872.47;;;14.93;100.00
74868;BME280;63419;42.262;12.210;2022-10-16T03:36:22;97862.56;;;14.87;100.00
74868;BME280;63419;42.262;12.210;2022-10-16T03:38:50;97863.50;;;15.42;100.00
74868;BME280;63419;42.262;12.210;2022-10-16T03:41:19;97861.78;;;16.19;100.00
74868;BME280;63419;42.262;12.210;2022-10-16T03:43:50;97875.50;;;16.21;100.00
74868;BME280;63419;42.262;12.210;2022-10-16T03:46:18;97871.19;;;16.31;100.00
74868;BME280;63419;42.262;12.210;2022-10-16T03:48:46;97870.13;;;16.34;100.00
74868;BME280;63419;42.262;12.210;2022-10-16T03:51:14;97880.97;;;16.39;100.00
74868;BME280;63419;42.262;12.210;2022-10-16T03:53:43;97882.63;;;15.64;100.00
74868;BME280;63419;42.262;12.210;2022-10-16T03:58:59;97885.31;;;15.85;100.00
74868;BME280;63419;42.262;12.210;2022-10-16T04:01:28;97879.59;;;16.56;100.00
74868;BME280;63419;42.262;12.210;2022-10-16T04:03:57;97883.53;;;16.71;100.00
74868;BME280;63419;42.262;12.210;2022-10-16T04:06:24;97890.44;;;16.82;100.00
74868;BME280;63419;42.262;12.210;2022-10-16T04:08:53;97899.63;;;16.98;100.00
74868;BME280;63419;42.262;12.210;2022-10-16T04:11:22;97897.06;;;16.65;100.00
74868;BME280;63419;42.262;12.210;2022-10-16T04:13:50;97895.94;;;16.58;100.00
74868;BME280;63419;42.262;12.210;2022-10-16T04:16:18;97903.97;;;16.34;100.00
74868;BME280;63419;42.262;12.210;2022-10-16T04:18:45;97907.97;;;16.38;100.00
74868;BME280;63419;42.262;12.210;2022-10-16T04:21:15;97908.44;;;16.64;100.00
74868;BME280;63419;42.262;12.210;2022-10-16T04:23:43;97908.63;;;16.72;100.00
74868;BME280;63419;42.262;12.210;2022-10-16T04:26:13;97913.84;;;16.51;100.00
74868;BME280;63419;42.262;12.210;2022-10-16T04:28:51;97913.25;;;16.48;100.00
74868;BME280;63419;42.262;12.210;2022-10-16T04:31:19;97913.66;;;16.64;100.00
74868;BME280;63419;42.262;12.210;2022-10-16T04:33:48;97922.34;;;15.43;100.00
74868;BME280;63419;42.262;12.210;2022-10-16T04:36:23;97921.59;;;15.98;100.00
74868;BME280;63419;42.262;12.210;2022-10-16T04:38:55;97927.19;;;15.82;100.00
74868;BME280;63419;42.262;12.210;2022-10-16T04:41:24;97926.88;;;16.19;100.00
74868;BME280;63419;42.262;12.210;2022-10-16T04:43:55;97928.72;;;15.62;100.00
74868;BME280;63419;42.262;12.210;2022-10-16T04:46:22;97933.19;;;16.05;100.00
74868;BME280;63419;42.262;12.210;2022-10-16T04:48:50;97927.97;;;16.37;100.00
74868;BME280;63419;42.262;12.210;2022-10-16T04:51:19;97929.22;;;16.54;100.00
74868;BME280;63419;42.262;12.210;2022-10-16T04:53:49;97931.88;;;16.64;100.00
74868;BME280;63419;42.262;12.210;2022-10-16T04:56:17;97936.50;;;16.40;100.00
74868;BME280;63419;42.262;12.210;2022-10-16T04:58:47;97932.53;;;16.24;100.00
74868;BME280;63419;42.262;12.210;2022-10-16T05:01:16;97936.03;;;16.34;100.00
74868;BME280;63419;42.262;12.210;2022-10-16T05:03:45;97937.72;;;15.92;100.00
74868;BME280;63419;42.262;12.210;2022-10-16T05:06:13;97926.63;;;16.22;100.00
74868;BME280;63419;42.262;12.210;2022-10-16T05:08:43;97931.69;;;16.24;100.00
74868;BME280;63419;42.262;12.210;2022-10-16T05:11:11;97930.06;;;16.23;100.00
74868;BME280;63419;42.262;12.210;2022-10-16T05:13:41;97942.16;;;16.45;100.00
74868;BME280;63419;42.262;12.210;2022-10-16T05:16:12;97937.47;;;16.27;100.00
74868;BME280;63419;42.262;12.210;2022-10-16T05:18:43;97936.59;;;16.17;100.00
74868;BME280;63419;42.262;12.210;2022-10-16T05:21:13;97941.56;;;16.09;100.00
74868;BME280;63419;42.262;12.210;2022-10-16T05:23:44;97934.97;;;16.05;100.00
74868;BME280;63419;42.262;12.210;2022-10-16T05:26:13;97948.38;;;15.89;100.00
74868;BME280;63419;42.262;12.210;2022-10-16T05:28:41;97951.31;;;15.84;100.00
74868;BME280;63419;42.262;12.210;2022-10-16T05:31:09;97953.44;;;15.90;100.00
74868;BME280;63419;42.262;12.210;2022-10-16T05:33:40;97951.53;;;15.70;100.00
74868;BME280;63419;42.262;12.210;2022-10-16T05:36:10;97954.03;;;15.71;100.00
74868;BME280;63419;42.262;12.210;2022-10-16T05:38:39;97952.28;;;15.83;100.00
74868;BME280;63419;42.262;12.210;2022-10-16T05:41:07;97949.50;;;16.18;100.00
74868;BME280;63419;42.262;12.210;2022-10-16T05:43:38;97959.09;;;13.22;100.00
74868;BME280;63419;42.262;12.210;2022-10-16T05:46:06;97950.53;;;13.84;100.00
74868;BME280;63419;42.262;12.210;2022-10-16T05:48:34;97938.22;;;14.71;100.00
74868;BME280;63419;42.262;12.210;2022-10-16T05:51:08;97945.66;;;15.22;100.00
74868;BME280;63419;42.262;12.210;2022-10-16T05:53:38;97938.09;;;15.42;100.00
74868;BME280;63419;42.262;12.210;2022-10-16T05:56:11;97942.78;;;15.03;100.00
74868;BME280;63419;42.262;12.210;2022-10-16T05:58:42;97941.06;;;12.94;100.00
74868;BME280;63419;42.262;12.210;2022-10-16T06:01:16;97941.28;;;14.17;100.00
74868;BME280;63419;42.262;12.210;2022-10-16T06:03:44;97937.03;;;14.64;100.00
74868;BME280;63419;42.262;12.210;2022-10-16T06:06:16;97943.72;;;15.02;100.00
74868;BME280;63419;42.262;12.210;2022-10-16T06:08:45;97941.63;;;15.30;100.00
74868;BME280;63419;42.262;12.210;2022-10-16T06:11:22;97948.72;;;15.61;100.00
74868;BME280;63419;42.262;12.210;2022-10-16T06:13:55;97963.19;;;13.76;100.00
74868;BME280;63419;42.262;12.210;2022-10-16T06:16:33;97950.91;;;15.10;100.00
74868;BME280;63419;42.262;12.210;2022-10-16T06:19:11;97953.44;;;15.68;100.00
74868;BME280;63419;42.262;12.210;2022-10-16T06:21:40;97957.31;;;16.07;100.00
74868;BME280;63419;42.262;12.210;2022-10-16T06:24:11;97960.56;;;16.32;100.00
74868;BME280;63419;42.262;12.210;2022-10-16T06:26:39;97968.81;;;15.59;100.00
74868;BME280;63419;42.262;12.210;2022-10-16T06:29:10;97971.78;;;14.26;100.00
74868;BME280;63419;42.262;12.210;2022-10-16T06:31:38;97965.25;;;15.15;100.00
74868;BME280;63419;42.262;12.210;2022-10-16T06:34:05;97968.66;;;16.17;100.00
74868;BME280;63419;42.262;12.210;2022-10-16T06:36:38;97975.03;;;16.57;100.00
74868;BME280;63419;42.262;12.210;2022-10-16T06:39:07;97977.16;;;16.52;100.00
74868;BME280;63419;42.262;12.210;2022-10-16T06:41:37;97984.22;;;16.61;100.00
74868;BME280;63419;42.262;12.210;2022-10-16T06:44:09;97983.66;;;17.32;100.00
74868;BME280;63419;42.262;12.210;2022-10-16T06:46:40;97985.19;;;17.13;100.00
74868;BME280;63419;42.262;12.210;2022-10-16T06:49:09;97999.25;;;17.01;100.00
74868;BME280;63419;42.262;12.210;2022-10-16T06:51:38;97993.63;;;17.27;100.00
74868;BME280;63419;42.262;12.210;2022-10-16T06:54:10;97997.75;;;17.50;100.00
74868;BME280;63419;42.262;12.210;2022-10-16T06:56:54;98002.63;;;17.96;100.00
74868;BME280;63419;42.262;12.210;2022-10-16T06:59:23;98003.97;;;17.90;100.00
74868;BME280;63419;42.262;12.210;2022-10-16T07:01:52;98009.44;;;17.04;100.00
74868;BME280;63419;42.262;12.210;2022-10-16T07:04:21;98011.66;;;16.44;100.00
74868;BME280;63419;42.262;12.210;2022-10-16T07:06:50;97998.59;;;16.88;100.00
74868;BME280;63419;42.262;12.210;2022-10-16T07:09:23;98008.25;;;17.39;100.00
74868;BME280;63419;42.262;12.210;2022-10-16T07:11:52;98016.38;;;17.67;100.00
74868;BME280;63419;42.262;12.210;2022-10-16T07:14:21;98008.88;;;17.83;100.00
74868;BME280;63419;42.262;12.210;2022-10-16T07:16:49;98017.97;;;17.58;100.00
74868;BME280;63419;42.262;12.210;2022-10-16T07:19:19;98013.63;;;17.17;100.00
74868;BME280;63419;42.262;12.210;2022-10-16T07:21:47;98010.19;;;17.16;100.00
74868;BME280;63419;42.262;12.210;2022-10-16T07:24:20;98013.31;;;17.62;100.00
74868;BME280;63419;42.262;12.210;2022-10-16T07:26:49;98019.59;;;18.11;100.00
74868;BME280;63419;42.262;12.210;2022-10-16T07:29:21;98017.00;;;17.59;100.00
74868;BME280;63419;42.262;12.210;2022-10-16T07:31:49;98016.59;;;17.33;100.00
74868;BME280;63419;42.262;12.210;2022-10-16T07:34:21;98006.09;;;17.44;100.00
74868;BME280;63419;42.262;12.210;2022-10-16T07:36:50;98012.69;;;18.20;100.00
74868;BME280;63419;42.262;12.210;2022-10-16T07:39:19;98015.69;;;18.95;100.00
74868;BME280;63419;42.262;12.210;2022-10-16T07:41:46;98024.31;;;19.34;100.00
74868;BME280;63419;42.262;12.210;2022-10-16T07:44:18;98033.66;;;19.47;100.00
74868;BME280;63419;42.262;12.210;2022-10-16T07:46:46;98037.38;;;18.56;100.00
74868;BME280;63419;42.262;12.210;2022-10-16T07:49:15;98041.22;;;18.33;100.00
74868;BME280;63419;42.262;12.210;2022-10-16T07:51:43;98035.31;;;18.31;100.00
74868;BME280;63419;42.262;12.210;2022-10-16T07:54:13;98041.66;;;18.77;100.00
74868;BME280;63419;42.262;12.210;2022-10-16T07:56:41;98051.31;;;18.67;100.00
74868;BME280;63419;42.262;12.210;2022-10-16T07:59:12;98049.41;;;19.08;100.00
74868;BME280;63419;42.262;12.210;2022-10-16T08:01:39;98052.13;;;19.16;100.00
74868;BME280;63419;42.262;12.210;2022-10-16T08:04:08;98057.22;;;18.78;100.00
74868;BME280;63419;42.262;12.210;2022-10-16T08:06:40;98066.19;;;18.95;100.00
74868;BME280;63419;42.262;12.210;2022-10-16T08:09:11;98059.88;;;18.88;100.00
74868;BME280;63419;42.262;12.210;2022-10-16T08:11:39;98062.88;;;19.03;100.00
74868;BME280;63419;42.262;12.210;2022-10-16T08:14:08;98052.09;;;20.48;100.00
74868;BME280;63419;42.262;12.210;2022-10-16T08:16:35;98063.97;;;19.30;100.00
74868;BME280;63419;42.262;12.210;2022-10-16T08:19:05;98065.88;;;19.94;100.00
74868;BME280;63419;42.262;12.210;2022-10-16T08:21:33;98070.59;;;20.19;100.00
74868;BME280;63419;42.262;12.210;2022-10-16T08:24:00;98077.47;;;21.11;100.00
74868;BME280;63419;42.262;12.210;2022-10-16T08:26:30;98094.19;;;19.81;100.00
74868;BME280;63419;42.262;12.210;2022-10-16T08:29:00;98091.03;;;21.06;100.00
74868;BME280;63419;42.262;12.210;2022-10-16T08:31:30;98094.81;;;21.66;100.00
74868;BME280;63419;42.262;12.210;2022-10-16T08:34:00;98096.16;;;22.04;100.00
74868;BME280;63419;42.262;12.210;2022-10-16T08:36:31;98093.16;;;22.76;100.00
74868;BME280;63419;42.262;12.210;2022-10-16T08:38:59;98103.91;;;21.80;100.00
74868;BME280;63419;42.262;12.210;2022-10-16T08:41:53;98112.00;;;22.55;100.00
74868;BME280;63419;42.262;12.210;2022-10-16T08:47:26;98112.28;;;23.03;100.00
74868;BME280;63419;42.262;12.210;2022-10-16T08:50:11;98116.97;;;22.83;100.00
74868;BME280;63419;42.262;12.210;2022-10-16T08:52:44;98127.13;;;21.66;100.00
74868;BME280;63419;42.262;12.210;2022-10-16T08:55:39;98126.78;;;23.07;100.00
74868;BME280;63419;42.262;12.210;2022-10-16T08:58:27;98133.81;;;22.13;100.00
74868;BME280;63419;42.262;12.210;2022-10-16T09:01:10;98134.81;;;21.86;100.00
74868;BME280;63419;42.262;12.210;2022-10-16T09:20:38;98144.69;;;20.94;100.00
74868;BME280;63419;42.262;12.210;2022-10-16T09:23:29;98140.81;;;22.04;100.00
74868;BME280;63419;42.262;12.210;2022-10-16T09:25:59;98139.06;;;22.13;100.00
74868;BME280;63419;42.262;12.210;2022-10-16T09:28:31;98131.06;;;23.25;100.00
74868;BME280;63419;42.262;12.210;2022-10-16T09:30:58;98137.97;;;23.17;100.00
74868;BME280;63419;42.262;12.210;2022-10-16T09:33:35;98117.25;;;25.60;100.00
74868;BME280;63419;42.262;12.210;2022-10-16T09:36:15;98112.47;;;26.23;100.00
74868;BME280;63419;42.262;12.210;2022-10-16T09:38:43;98126.22;;;24.58;100.00
74868;BME280;63419;42.262;12.210;2022-10-16T09:41:22;98145.06;;;21.71;100.00
74868;BME280;63419;42.262;12.210;2022-10-16T09:44:02;98147.00;;;22.56;100.00
74868;BME280;63419;42.262;12.210;2022-10-16T09:46:35;98146.03;;;22.65;100.00
74868;BME280;63419;42.262;12.210;2022-10-16T09:49:24;98159.16;;;21.70;100.00
74868;BME280;63419;42.262;12.210;2022-10-16T09:52:14;98152.91;;;22.23;100.00
74868;BME280;63419;42.262;12.210;2022-10-16T09:54:57;98152.88;;;22.41;100.00
74868;BME280;63419;42.262;12.210;2022-10-16T09:57:26;98149.16;;;23.36;100.00
74868;BME280;63419;42.262;12.210;2022-10-16T10:00:08;98135.25;;;24.08;100.00
74868;BME280;63419;42.262;12.210;2022-10-16T10:02:37;98141.91;;;23.71;100.00
74868;BME280;63419;42.262;12.210;2022-10-16T10:05:27;98141.22;;;23.69;100.00
74868;BME280;63419;42.262;12.210;2022-10-16T10:08:12;98147.28;;;23.04;100.00
74868;BME280;63419;42.262;12.210;2022-10-16T10:10:49;98133.25;;;24.66;100.00
74868;BME280;63419;42.262;12.210;2022-10-16T10:13:26;98120.38;;;25.78;100.00
74868;BME280;63419;42.262;12.210;2022-10-16T10:15:56;98116.75;;;26.39;100.00
74868;BME280;63419;42.262;12.210;2022-10-16T10:18:26;98120.44;;;26.08;100.00
74868;BME280;63419;42.262;12.210;2022-10-16T10:21:02;98111.81;;;26.66;100.00
74868;BME280;63419;42.262;12.210;2022-10-16T10:23:32;98118.56;;;26.90;100.00
74868;BME280;63419;42.262;12.210;2022-10-16T10:26:21;98107.41;;;27.16;100.00
74868;BME280;63419;42.262;12.210;2022-10-16T10:34:58;98106.09;;;27.27;100.00
74868;BME280;63419;42.262;12.210;2022-10-16T10:40:52;98109.94;;;27.03;100.00
74868;BME280;63419;42.262;12.210;2022-10-16T10:46:53;98103.53;;;27.90;100.00
74868;BME280;63419;42.262;12.210;2022-10-16T11:01:14;98099.81;;;27.28;100.00
74868;BME280;63419;42.262;12.210;2022-10-16T11:06:44;98098.13;;;27.77;100.00
74868;BME280;63419;42.262;12.210;2022-10-16T11:09:23;98097.06;;;27.71;100.00
74868;BME280;63419;42.262;12.210;2022-10-16T11:12:17;98092.31;;;28.98;100.00
74868;BME280;63419;42.262;12.210;2022-10-16T11:15:02;98086.88;;;29.39;100.00
74868;BME280;63419;42.262;12.210;2022-10-16T11:18:03;98077.63;;;30.86;100.00
74868;BME280;63419;42.262;12.210;2022-10-16T11:20:48;98069.94;;;31.53;100.00
74868;BME280;63419;42.262;12.210;2022-10-16T11:26:21;98070.22;;;30.95;100.00
74868;BME280;63419;42.262;12.210;2022-10-16T11:28:55;98075.53;;;30.56;100.00
74868;BME280;63419;42.262;12.210;2022-10-16T11:31:43;98065.00;;;31.94;100.00
74868;BME280;63419;42.262;12.210;2022-10-16T11:34:26;98075.22;;;30.32;100.00
74868;BME280;63419;42.262;12.210;2022-10-16T11:37:21;98065.91;;;31.44;100.00
74868;BME280;63419;42.262;12.210;2022-10-16T11:39:54;98068.31;;;30.18;100.00
74868;BME280;63419;42.262;12.210;2022-10-16T11:42:36;98068.44;;;29.65;100.00
74868;BME280;63419;42.262;12.210;2022-10-16T11:45:40;98083.91;;;28.67;100.00
74868;BME280;63419;42.262;12.210;2022-10-16T11:51:47;98069.22;;;29.98;100.00
74868;BME280;63419;42.262;12.210;2022-10-16T11:57:47;98084.78;;;26.55;100.00
74868;BME280;63419;42.262;12.210;2022-10-16T12:00:32;98067.19;;;28.94;100.00
74868;BME280;63419;42.262;12.210;2022-10-16T12:06:13;98078.28;;;26.73;100.00
74868;BME280;63419;42.262;12.210;2022-10-16T12:08:45;98073.06;;;28.14;100.00
74868;BME280;63419;42.262;12.210;2022-10-16T12:16:58;98065.97;;;28.83;100.00
74868;BME280;63419;42.262;12.210;2022-10-16T12:19:31;98050.91;;;31.24;100.00
74868;BME280;63419;42.262;12.210;2022-10-16T12:22:29;98050.03;;;31.56;100.00
74868;BME280;63419;42.262;12.210;2022-10-16T12:25:35;98052.84;;;31.79;100.00
74868;BME280;63419;42.262;12.210;2022-10-16T12:28:26;98053.47;;;32.00;100.00
74868;BME280;63419;42.262;12.210;2022-10-16T12:31:02;98056.13;;;30.49;100.00
74868;BME280;63419;42.262;12.210;2022-10-16T12:34:01;98059.44;;;28.99;100.00
74868;BME280;63419;42.262;12.210;2022-10-16T12:36:37;98094.09;;;24.55;100.00
74868;BME280;63419;42.262;12.210;2022-10-16T12:39:22;98093.25;;;24.06;100.00
74868;BME280;63419;42.262;12.210;2022-10-16T12:44:56;98076.22;;;25.34;100.00
74868;BME280;63419;42.262;12.210;2022-10-16T12:49:59;98068.91;;;26.55;100.00
74868;BME280;63419;42.262;12.210;2022-10-16T12:52:37;98073.28;;;25.67;100.00
74868;BME280;63419;42.262;12.210;2022-10-16T12:55:16;98096.25;;;24.03;100.00
74868;BME280;63419;42.262;12.210;2022-10-16T13:09:41;98094.19;;;23.33;100.00
74868;BME280;63419;42.262;12.210;2022-10-16T13:12:57;98105.56;;;23.25;100.00
74868;BME280;63419;42.262;12.210;2022-10-16T13:18:22;98081.16;;;24.91;100.00
74868;BME280;63419;42.262;12.210;2022-10-16T13:26:40;98103.34;;;22.88;100.00
74868;BME280;63419;42.262;12.210;2022-10-16T13:29:14;98113.59;;;22.40;100.00
74868;BME280;63419;42.262;12.210;2022-10-16T13:31:44;98129.56;;;22.55;100.00
74868;BME280;63419;42.262;12.210;2022-10-16T13:34:19;98119.22;;;23.37;100.00
74868;BME280;63419;42.262;12.210;2022-10-16T13:36:51;98101.00;;;24.56;100.00
74868;BME280;63419;42.262;12.210;2022-10-16T13:39:32;98106.63;;;23.97;100.00
74868;BME280;63419;42.262;12.210;2022-10-16T13:42:10;98107.91;;;24.09;100.00
74868;BME280;63419;42.262;12.210;2022-10-16T13:44:49;98107.38;;;24.61;100.00
74868;BME280;63419;42.262;12.210;2022-10-16T13:47:29;98108.44;;;23.80;100.00
74868;BME280;63419;42.262;12.210;2022-10-16T13:52:32;98112.44;;;23.84;100.00
74868;BME280;63419;42.262;12.210;2022-10-16T13:55:00;98101.03;;;24.79;100.00
74868;BME280;63419;42.262;12.210;2022-10-16T13:57:29;98101.63;;;24.18;100.00
74868;BME280;63419;42.262;12.210;2022-10-16T13:59:57;98107.34;;;23.57;100.00
74868;BME280;63419;42.262;12.210;2022-10-16T14:02:36;98116.53;;;23.04;100.00
74868;BME280;63419;42.262;12.210;2022-10-16T14:05:09;98118.72;;;23.09;100.00
74868;BME280;63419;42.262;12.210;2022-10-16T14:07:42;98122.63;;;22.37;100.00
74868;BME280;63419;42.262;12.210;2022-10-16T14:13:06;98136.84;;;22.61;100.00
74868;BME280;63419;42.262;12.210;2022-10-16T14:15:36;98139.81;;;22.74;100.00
74868;BME280;63419;42.262;12.210;2022-10-16T14:18:05;98123.16;;;23.82;100.00
74868;BME280;63419;42.262;12.210;2022-10-16T14:20:34;98122.31;;;24.29;100.00
74868;BME280;63419;42.262;12.210;2022-10-16T14:25:48;98142.72;;;23.63;100.00
74868;BME280;63419;42.262;12.210;2022-10-16T14:28:23;98124.16;;;24.68;100.00
74868;BME280;63419;42.262;12.210;2022-10-16T14:31:00;98109.84;;;24.63;100.00
74868;BME280;63419;42.262;12.210;2022-10-16T14:38:43;98098.50;;;24.62;100.00
74868;BME280;63419;42.262;12.210;2022-10-16T14:41:15;98119.50;;;23.91;100.00
74868;BME280;63419;42.262;12.210;2022-10-16T14:43:53;98126.75;;;23.98;100.00
74868;BME280;63419;42.262;12.210;2022-10-16T14:46:36;98132.53;;;24.32;100.00
74868;BME280;63419;42.262;12.210;2022-10-16T14:51:41;98134.97;;;23.94;100.00
74868;BME280;63419;42.262;12.210;2022-10-16T14:54:17;98139.25;;;23.79;100.00
74868;BME280;63419;42.262;12.210;2022-10-16T14:56:57;98142.25;;;23.51;100.00
74868;BME280;63419;42.262;12.210;2022-10-16T14:59:35;98148.81;;;23.88;100.00
74868;BME280;63419;42.262;12.210;2022-10-16T15:02:29;98151.47;;;23.39;100.00
74868;BME280;63419;42.262;12.210;2022-10-16T15:05:26;98157.16;;;22.51;100.00
74868;BME280;63419;42.262;12.210;2022-10-16T15:07:58;98145.72;;;24.41;100.00
74868;BME280;63419;42.262;12.210;2022-10-16T15:10:28;98153.00;;;24.22;100.00
74868;BME280;63419;42.262;12.210;2022-10-16T15:12:56;98144.19;;;24.07;100.00
74868;BME280;63419;42.262;12.210;2022-10-16T15:15:43;98140.91;;;23.72;100.00